Main page
METAR-TAF:

METAR-TAF

Airports :

Sligo Airport

Sligo, Ireland

latitude: 54-16-49N, longitude: 8-35-57W, elevation: 3 m

Current weather observation

The report was made 12 hours and 33 minutes ago, at 17:00 UTC
Wind 8 kt from the West/Northwest
Temperature 16°C
Humidity 77%
Pressure 1012 hPa
Visibility 10 km or more
Few clouds at a height of 3000 ft
Broken clouds at a height of 4500 ft
Overcast at a height of 5500 ft

METAR: EISG 161700Z 30008KT 9999 FEW030 BKN045 OVC055 16/12 Q1012

Time: 06:33 (05:33 UTC)

Forecast

The report was made 3 hours and 33 minutes ago, at 02:00 UTC
Forecast valid from 17 at 03 UTC to 17 at 12 UTC
Wind 6 kt from the West/Southwest
Visibility 10 km or more
Scattered clouds at a height of 2500 ft
Broken clouds at a height of 4500 ft
Becoming
from 17 at 03 UTC to 17 at 06 UTC
Wind 5 kt from the South/Southwest

TAF: EISG 170200Z 1703/1712 24006KT 9999 SCT025 BKN045 BECMG 1703/1706 21005KT

Weather observations and forecasts of more than 4000 airports (METAR and TAF reports).

The available stations are represented by yellow and red dots on the map.

Hover mouse over dot to see the name of the station.

Then click to see weather observations and forecasts.

To change the map : click on the green buttons with a black cross to zoom in, on the green button with a dash to zoom out, or on the green arrows for adjacent maps.


METAR-TAF: